sensor_id;sensor_type;location;lat;lon;timestamp;temperature;humidity
51613;DHT22;37694;51.748;14.326;2022-08-01T00:01:00;22.90;40.10
51613;DHT22;37694;51.748;14.326;2022-08-01T00:03:26;22.90;40.00
51613;DHT22;37694;51.748;14.326;2022-08-01T00:05:51;22.80;40.10
51613;DHT22;37694;51.748;14.326;2022-08-01T00:08:17;22.80;40.20
51613;DHT22;37694;51.748;14.326;2022-08-01T00:10:43;22.90;40.10
51613;DHT22;37694;51.748;14.326;2022-08-01T00:13:08;22.90;40.10
51613;DHT22;37694;51.748;14.326;2022-08-01T00:15:34;22.90;40.00
51613;DHT22;37694;51.748;14.326;2022-08-01T00:17:59;22.90;40.10
51613;DHT22;37694;51.748;14.326;2022-08-01T00:20:25;22.90;40.00
51613;DHT22;37694;51.748;14.326;2022-08-01T00:22:51;22.90;39.80
51613;DHT22;37694;51.748;14.326;2022-08-01T00:25:16;22.90;39.80
51613;DHT22;37694;51.748;14.326;2022-08-01T00:27:42;22.90;39.90
51613;DHT22;37694;51.748;14.326;2022-08-01T00:30:08;22.90;39.90
51613;DHT22;37694;51.748;14.326;2022-08-01T00:32:33;22.80;39.90
51613;DHT22;37694;51.748;14.326;2022-08-01T00:34:59;22.80;39.90
51613;DHT22;37694;51.748;14.326;2022-08-01T00:37:24;22.80;39.80
51613;DHT22;37694;51.748;14.326;2022-08-01T00:39:50;22.80;39.90
51613;DHT22;37694;51.748;14.326;2022-08-01T00:42:16;22.80;40.00
51613;DHT22;37694;51.748;14.326;2022-08-01T00:44:41;22.80;40.00
51613;DHT22;37694;51.748;14.326;2022-08-01T00:47:07;22.80;40.00
51613;DHT22;37694;51.748;14.326;2022-08-01T00:49:33;22.80;39.90
51613;DHT22;37694;51.748;14.326;2022-08-01T00:52:00;22.80;39.90
51613;DHT22;37694;51.748;14.326;2022-08-01T00:54:26;22.80;39.80
51613;DHT22;37694;51.748;14.326;2022-08-01T00:56:53;22.70;39.90
51613;DHT22;37694;51.748;14.326;2022-08-01T00:59:21;22.80;40.00
51613;DHT22;37694;51.748;14.326;2022-08-01T01:01:46;22.80;39.90
51613;DHT22;37694;51.748;14.326;2022-08-01T01:04:12;22.70;39.90
51613;DHT22;37694;51.748;14.326;2022-08-01T01:10:13;22.80;39.80
51613;DHT22;37694;51.748;14.326;2022-08-01T01:12:44;22.70;39.90
51613;DHT22;37694;51.748;14.326;2022-08-01T01:15:21;22.60;40.00
51613;DHT22;37694;51.748;14.326;2022-08-01T01:18:02;22.70;39.90
51613;DHT22;37694;51.748;14.326;2022-08-01T01:20:32;22.70;39.70
51613;DHT22;37694;51.748;14.326;2022-08-01T01:23:24;22.60;40.80
51613;DHT22;37694;51.748;14.326;2022-08-01T01:31:57;22.60;39.90
51613;DHT22;37694;51.748;14.326;2022-08-01T01:34:24;22.60;39.90
51613;DHT22;37694;51.748;14.326;2022-08-01T01:36:52;22.60;40.00
51613;DHT22;37694;51.748;14.326;2022-08-01T01:39:20;22.60;39.90
51613;DHT22;37694;51.748;14.326;2022-08-01T01:41:48;22.60;40.00
51613;DHT22;37694;51.748;14.326;2022-08-01T01:44:15;22.60;40.00
51613;DHT22;37694;51.748;14.326;2022-08-01T01:46:42;22.60;40.00
51613;DHT22;37694;51.748;14.326;2022-08-01T01:49:08;22.60;40.00
51613;DHT22;37694;51.748;14.326;2022-08-01T01:51:38;22.60;39.90
51613;DHT22;37694;51.748;14.326;2022-08-01T01:54:07;22.60;39.90
51613;DHT22;37694;51.748;14.326;2022-08-01T01:56:35;22.60;39.80
51613;DHT22;37694;51.748;14.326;2022-08-01T01:59:02;22.60;39.90
51613;DHT22;37694;51.748;14.326;2022-08-01T02:01:31;22.50;39.80
51613;DHT22;37694;51.748;14.326;2022-08-01T02:03:58;22.50;39.80
51613;DHT22;37694;51.748;14.326;2022-08-01T02:06:26;22.50;39.80
51613;DHT22;37694;51.748;14.326;2022-08-01T02:08:53;22.50;39.80
51613;DHT22;37694;51.748;14.326;2022-08-01T02:11:20;22.50;39.80
51613;DHT22;37694;51.748;14.326;2022-08-01T02:13:57;22.50;40.00
51613;DHT22;37694;51.748;14.326;2022-08-01T02:16:26;22.50;40.00
51613;DHT22;37694;51.748;14.326;2022-08-01T02:18:52;22.50;40.00
51613;DHT22;37694;51.748;14.326;2022-08-01T02:21:25;22.40;39.90
51613;DHT22;37694;51.748;14.326;2022-08-01T02:23:53;22.40;39.90
51613;DHT22;37694;51.748;14.326;2022-08-01T02:26:22;22.40;40.00
51613;DHT22;37694;51.748;14.326;2022-08-01T02:28:59;22.40;39.90
51613;DHT22;37694;51.748;14.326;2022-08-01T02:31:26;22.40;40.00
51613;DHT22;37694;51.748;14.326;2022-08-01T02:34:06;22.40;40.00
51613;DHT22;37694;51.748;14.326;2022-08-01T02:36:34;22.40;39.90
51613;DHT22;37694;51.748;14.326;2022-08-01T02:39:08;22.40;40.10
51613;DHT22;37694;51.748;14.326;2022-08-01T02:41:38;22.40;40.00
51613;DHT22;37694;51.748;14.326;2022-08-01T02:44:07;22.40;40.10
51613;DHT22;37694;51.748;14.326;2022-08-01T02:46:38;22.40;40.10
51613;DHT22;37694;51.748;14.326;2022-08-01T02:49:06;22.30;40.10
51613;DHT22;37694;51.748;14.326;2022-08-01T02:51:33;22.40;40.20
51613;DHT22;37694;51.748;14.326;2022-08-01T02:54:01;22.30;40.60
51613;DHT22;37694;51.748;14.326;2022-08-01T02:56:29;22.30;41.10
51613;DHT22;37694;51.748;14.326;2022-08-01T02:59:05;22.30;41.70
51613;DHT22;37694;51.748;14.326;2022-08-01T03:01:35;22.30;42.10
51613;DHT22;37694;51.748;14.326;2022-08-01T03:04:06;22.30;42.60
51613;DHT22;37694;51.748;14.326;2022-08-01T03:06:32;22.30;43.00
51613;DHT22;37694;51.748;14.326;2022-08-01T03:09:00;22.30;43.30
51613;DHT22;37694;51.748;14.326;2022-08-01T03:11:27;22.30;43.60
51613;DHT22;37694;51.748;14.326;2022-08-01T03:13:55;22.30;44.00
51613;DHT22;37694;51.748;14.326;2022-08-01T03:16:23;22.30;43.90
51613;DHT22;37694;51.748;14.326;2022-08-01T03:18:51;22.30;44.20
51613;DHT22;37694;51.748;14.326;2022-08-01T03:21:20;22.30;44.50
51613;DHT22;37694;51.748;14.326;2022-08-01T03:23:47;22.30;44.80
51613;DHT22;37694;51.748;14.326;2022-08-01T03:26:14;22.30;45.10
51613;DHT22;37694;51.748;14.326;2022-08-01T03:28:41;22.30;45.30
51613;DHT22;37694;51.748;14.326;2022-08-01T03:31:10;22.20;45.60
51613;DHT22;37694;51.748;14.326;2022-08-01T03:33:37;22.20;45.70
51613;DHT22;37694;51.748;14.326;2022-08-01T03:36:05;22.20;45.90
51613;DHT22;37694;51.748;14.326;2022-08-01T03:38:36;22.20;46.20
51613;DHT22;37694;51.748;14.326;2022-08-01T03:41:09;22.20;46.40
51613;DHT22;37694;51.748;14.326;2022-08-01T03:43:40;22.20;46.60
51613;DHT22;37694;51.748;14.326;2022-08-01T03:46:13;22.20;46.60
51613;DHT22;37694;51.748;14.326;2022-08-01T03:48:44;22.20;46.90
51613;DHT22;37694;51.748;14.326;2022-08-01T03:51:12;22.20;46.90
51613;DHT22;37694;51.748;14.326;2022-08-01T03:53:41;22.20;47.00
51613;DHT22;37694;51.748;14.326;2022-08-01T03:56:08;22.20;47.10
51613;DHT22;37694;51.748;14.326;2022-08-01T03:58:35;22.20;47.20
51613;DHT22;37694;51.748;14.326;2022-08-01T04:01:02;22.20;47.40
51613;DHT22;37694;51.748;14.326;2022-08-01T04:03:28;22.20;47.50
51613;DHT22;37694;51.748;14.326;2022-08-01T04:05:54;22.20;47.50
51613;DHT22;37694;51.748;14.326;2022-08-01T04:08:19;22.20;48.50
51613;DHT22;37694;51.748;14.326;2022-08-01T04:10:45;22.20;47.80
51613;DHT22;37694;51.748;14.326;2022-08-01T04:13:11;22.20;47.80
51613;DHT22;37694;51.748;14.326;2022-08-01T04:15:36;22.20;47.60
51613;DHT22;37694;51.748;14.326;2022-08-01T04:18:02;22.20;47.80
51613;DHT22;37694;51.748;14.326;2022-08-01T04:20:28;22.20;48.00
51613;DHT22;37694;51.748;14.326;2022-08-01T04:22:53;22.20;48.10
51613;DHT22;37694;51.748;14.326;2022-08-01T04:25:25;22.20;48.10
51613;DHT22;37694;51.748;14.326;2022-08-01T04:27:53;22.20;48.20
51613;DHT22;37694;51.748;14.326;2022-08-01T04:30:23;22.20;48.30
51613;DHT22;37694;51.748;14.326;2022-08-01T04:32:51;22.20;48.50
51613;DHT22;37694;51.748;14.326;2022-08-01T04:35:19;22.20;48.60
51613;DHT22;37694;51.748;14.326;2022-08-01T04:37:45;22.20;48.60
51613;DHT22;37694;51.748;14.326;2022-08-01T04:40:13;22.20;48.70
51613;DHT22;37694;51.748;14.326;2022-08-01T04:42:40;22.20;48.70
51613;DHT22;37694;51.748;14.326;2022-08-01T04:45:07;22.20;48.60
51613;DHT22;37694;51.748;14.326;2022-08-01T04:47:34;22.20;48.90
51613;DHT22;37694;51.748;14.326;2022-08-01T04:50:04;22.20;49.00
51613;DHT22;37694;51.748;14.326;2022-08-01T04:52:34;22.20;49.20
51613;DHT22;37694;51.748;14.326;2022-08-01T04:55:00;22.20;49.30
51613;DHT22;37694;51.748;14.326;2022-08-01T04:57:25;22.20;49.30
51613;DHT22;37694;51.748;14.326;2022-08-01T04:59:51;22.20;49.30
51613;DHT22;37694;51.748;14.326;2022-08-01T05:02:22;22.20;49.50
51613;DHT22;37694;51.748;14.326;2022-08-01T05:04:49;22.20;49.50
51613;DHT22;37694;51.748;14.326;2022-08-01T05:07:15;22.20;49.60
51613;DHT22;37694;51.748;14.326;2022-08-01T05:09:41;22.20;49.60
51613;DHT22;37694;51.748;14.326;2022-08-01T05:12:08;22.20;49.60
51613;DHT22;37694;51.748;14.326;2022-08-01T05:14:34;22.30;49.10
51613;DHT22;37694;51.748;14.326;2022-08-01T05:17:01;22.40;48.90
51613;DHT22;37694;51.748;14.326;2022-08-01T05:19:38;22.60;48.80
51613;DHT22;37694;51.748;14.326;2022-08-01T05:22:07;22.80;48.40
51613;DHT22;37694;51.748;14.326;2022-08-01T05:24:35;22.90;48.30
51613;DHT22;37694;51.748;14.326;2022-08-01T05:27:00;23.00;48.10
51613;DHT22;37694;51.748;14.326;2022-08-01T05:29:27;23.10;48.20
51613;DHT22;37694;51.748;14.326;2022-08-01T05:31:53;23.20;48.10
51613;DHT22;37694;51.748;14.326;2022-08-01T05:34:19;23.30;49.10
51613;DHT22;37694;51.748;14.326;2022-08-01T05:36:45;23.30;48.30
51613;DHT22;37694;51.748;14.326;2022-08-01T05:39:11;23.40;48.20
51613;DHT22;37694;51.748;14.326;2022-08-01T05:41:38;23.50;48.10
51613;DHT22;37694;51.748;14.326;2022-08-01T05:44:04;23.60;48.10
51613;DHT22;37694;51.748;14.326;2022-08-01T05:46:30;23.60;48.00
51613;DHT22;37694;51.748;14.326;2022-08-01T05:48:59;23.60;48.20
51613;DHT22;37694;51.748;14.326;2022-08-01T05:51:25;23.60;48.10
51613;DHT22;37694;51.748;14.326;2022-08-01T05:53:52;23.70;48.00
51613;DHT22;37694;51.748;14.326;2022-08-01T05:56:18;23.70;48.00
51613;DHT22;37694;51.748;14.326;2022-08-01T05:58:44;23.80;47.80
51613;DHT22;37694;51.748;14.326;2022-08-01T06:01:10;23.80;47.80
51613;DHT22;37694;51.748;14.326;2022-08-01T06:03:35;23.90;48.00
51613;DHT22;37694;51.748;14.326;2022-08-01T06:06:01;23.90;47.90
51613;DHT22;37694;51.748;14.326;2022-08-01T06:08:27;23.90;47.80
51613;DHT22;37694;51.748;14.326;2022-08-01T06:10:53;24.00;47.80
51613;DHT22;37694;51.748;14.326;2022-08-01T06:13:19;24.00;47.90
51613;DHT22;37694;51.748;14.326;2022-08-01T06:15:45;24.00;47.90
51613;DHT22;37694;51.748;14.326;2022-08-01T06:18:11;24.10;47.90
51613;DHT22;37694;51.748;14.326;2022-08-01T06:20:37;24.10;47.70
51613;DHT22;37694;51.748;14.326;2022-08-01T06:23:03;24.10;47.50
51613;DHT22;37694;51.748;14.326;2022-08-01T06:25:29;24.10;47.40
51613;DHT22;37694;51.748;14.326;2022-08-01T06:27:55;24.10;47.20
51613;DHT22;37694;51.748;14.326;2022-08-01T06:30:20;24.20;47.20
51613;DHT22;37694;51.748;14.326;2022-08-01T06:32:46;24.20;47.10
51613;DHT22;37694;51.748;14.326;2022-08-01T06:35:13;24.20;47.10
51613;DHT22;37694;51.748;14.326;2022-08-01T06:37:38;24.20;46.90
51613;DHT22;37694;51.748;14.326;2022-08-01T06:40:06;24.20;46.80
51613;DHT22;37694;51.748;14.326;2022-08-01T06:42:33;24.20;46.80
51613;DHT22;37694;51.748;14.326;2022-08-01T06:45:06;24.30;46.70
51613;DHT22;37694;51.748;14.326;2022-08-01T06:47:32;24.30;46.60
51613;DHT22;37694;51.748;14.326;2022-08-01T06:49:58;24.30;46.50
51613;DHT22;37694;51.748;14.326;2022-08-01T06:52:24;24.30;46.40
51613;DHT22;37694;51.748;14.326;2022-08-01T06:54:49;24.30;46.40
51613;DHT22;37694;51.748;14.326;2022-08-01T06:57:15;24.30;47.20
51613;DHT22;37694;51.748;14.326;2022-08-01T06:59:41;24.40;46.40
51613;DHT22;37694;51.748;14.326;2022-08-01T07:02:07;24.40;46.30
51613;DHT22;37694;51.748;14.326;2022-08-01T07:04:33;24.40;46.30
51613;DHT22;37694;51.748;14.326;2022-08-01T07:06:58;24.40;46.20
51613;DHT22;37694;51.748;14.326;2022-08-01T07:09:24;24.50;46.20
51613;DHT22;37694;51.748;14.326;2022-08-01T07:11:50;24.40;46.10
51613;DHT22;37694;51.748;14.326;2022-08-01T07:14:17;24.50;46.20
51613;DHT22;37694;51.748;14.326;2022-08-01T07:16:43;24.50;46.10
51613;DHT22;37694;51.748;14.326;2022-08-01T07:19:09;24.50;46.10
51613;DHT22;37694;51.748;14.326;2022-08-01T07:21:34;24.50;46.00
51613;DHT22;37694;51.748;14.326;2022-08-01T07:24:00;24.50;45.90
51613;DHT22;37694;51.748;14.326;2022-08-01T07:26:26;24.50;46.00
51613;DHT22;37694;51.748;14.326;2022-08-01T07:28:52;24.60;45.90
51613;DHT22;37694;51.748;14.326;2022-08-01T07:31:18;24.60;45.90
51613;DHT22;37694;51.748;14.326;2022-08-01T07:33:44;24.60;45.80
51613;DHT22;37694;51.748;14.326;2022-08-01T07:36:09;24.60;45.90
51613;DHT22;37694;51.748;14.326;2022-08-01T07:38:35;24.60;45.80
51613;DHT22;37694;51.748;14.326;2022-08-01T07:41:01;24.60;45.70
51613;DHT22;37694;51.748;14.326;2022-08-01T07:43:27;24.70;45.70
51613;DHT22;37694;51.748;14.326;2022-08-01T07:45:53;24.70;45.70
51613;DHT22;37694;51.748;14.326;2022-08-01T07:48:19;24.70;45.60
51613;DHT22;37694;51.748;14.326;2022-08-01T07:50:49;24.70;45.60
51613;DHT22;37694;51.748;14.326;2022-08-01T07:53:15;24.70;45.60
51613;DHT22;37694;51.748;14.326;2022-08-01T07:55:41;24.70;45.40
51613;DHT22;37694;51.748;14.326;2022-08-01T07:58:06;24.70;45.50
51613;DHT22;37694;51.748;14.326;2022-08-01T08:00:32;24.80;45.40
51613;DHT22;37694;51.748;14.326;2022-08-01T08:02:57;24.80;45.40
51613;DHT22;37694;51.748;14.326;2022-08-01T08:05:25;24.80;45.40
51613;DHT22;37694;51.748;14.326;2022-08-01T08:07:51;24.90;45.40
51613;DHT22;37694;51.748;14.326;2022-08-01T08:10:16;24.90;45.30
51613;DHT22;37694;51.748;14.326;2022-08-01T08:12:42;24.90;45.30
51613;DHT22;37694;51.748;14.326;2022-08-01T08:15:08;24.90;45.30
51613;DHT22;37694;51.748;14.326;2022-08-01T08:17:34;24.90;45.30
51613;DHT22;37694;51.748;14.326;2022-08-01T08:20:01;24.90;45.20
51613;DHT22;37694;51.748;14.326;2022-08-01T08:22:27;25.00;45.20
51613;DHT22;37694;51.748;14.326;2022-08-01T08:24:52;25.00;45.20
51613;DHT22;37694;51.748;14.326;2022-08-01T08:27:18;25.00;45.20
51613;DHT22;37694;51.748;14.326;2022-08-01T08:29:44;25.00;45.10
51613;DHT22;37694;51.748;14.326;2022-08-01T08:32:09;25.00;45.10
51613;DHT22;37694;51.748;14.326;2022-08-01T08:34:35;25.10;45.10
51613;DHT22;37694;51.748;14.326;2022-08-01T08:37:01;25.10;45.10
51613;DHT22;37694;51.748;14.326;2022-08-01T08:39:26;25.10;45.00
51613;DHT22;37694;51.748;14.326;2022-08-01T08:41:55;25.10;45.10
51613;DHT22;37694;51.748;14.326;2022-08-01T08:44:21;25.20;45.20
51613;DHT22;37694;51.748;14.326;2022-08-01T08:46:50;25.20;45.00
51613;DHT22;37694;51.748;14.326;2022-08-01T08:49:19;25.20;45.10
51613;DHT22;37694;51.748;14.326;2022-08-01T08:51:48;25.20;45.00
51613;DHT22;37694;51.748;14.326;2022-08-01T08:54:14;25.20;45.00
51613;DHT22;37694;51.748;14.326;2022-08-01T08:56:40;25.20;45.10
51613;DHT22;37694;51.748;14.326;2022-08-01T08:59:07;25.20;45.00
51613;DHT22;37694;51.748;14.326;2022-08-01T09:01:32;25.20;45.00
51613;DHT22;37694;51.748;14.326;2022-08-01T09:04:03;25.30;45.10
51613;DHT22;37694;51.748;14.326;2022-08-01T09:06:29;25.30;45.10
51613;DHT22;37694;51.748;14.326;2022-08-01T09:08:56;25.30;45.20
51613;DHT22;37694;51.748;14.326;2022-08-01T09:11:22;25.30;45.20
51613;DHT22;37694;51.748;14.326;2022-08-01T09:14:09;25.30;45.10
51613;DHT22;37694;51.748;14.326;2022-08-01T09:16:40;25.30;44.80
51613;DHT22;37694;51.748;14.326;2022-08-01T09:19:09;25.30;45.00
51613;DHT22;37694;51.748;14.326;2022-08-01T09:21:36;25.40;45.00
51613;DHT22;37694;51.748;14.326;2022-08-01T09:24:02;25.40;45.10
51613;DHT22;37694;51.748;14.326;2022-08-01T09:26:35;25.40;45.00
51613;DHT22;37694;51.748;14.326;2022-08-01T09:29:06;25.40;44.90
51613;DHT22;37694;51.748;14.326;2022-08-01T09:31:43;25.40;44.90
51613;DHT22;37694;51.748;14.326;2022-08-01T09:34:09;25.40;44.90
51613;DHT22;37694;51.748;14.326;2022-08-01T09:36:56;25.40;45.00
51613;DHT22;37694;51.748;14.326;2022-08-01T09:41:53;25.40;44.80
51613;DHT22;37694;51.748;14.326;2022-08-01T09:44:19;25.50;44.90
51613;DHT22;37694;51.748;14.326;2022-08-01T09:47:01;25.50;44.90
51613;DHT22;37694;51.748;14.326;2022-08-01T09:49:32;25.50;44.90
51613;DHT22;37694;51.748;14.326;2022-08-01T09:52:11;25.50;44.80
51613;DHT22;37694;51.748;14.326;2022-08-01T09:54:37;25.50;44.70
51613;DHT22;37694;51.748;14.326;2022-08-01T09:57:13;25.50;44.80
51613;DHT22;37694;51.748;14.326;2022-08-01T09:59:42;25.60;44.80
51613;DHT22;37694;51.748;14.326;2022-08-01T10:02:09;25.60;44.90
51613;DHT22;37694;51.748;14.326;2022-08-01T10:04:36;25.60;44.90
51613;DHT22;37694;51.748;14.326;2022-08-01T10:07:08;25.60;44.70
51613;DHT22;37694;51.748;14.326;2022-08-01T10:09:35;25.60;44.70
51613;DHT22;37694;51.748;14.326;2022-08-01T10:12:02;25.70;44.80
51613;DHT22;37694;51.748;14.326;2022-08-01T10:14:29;25.70;44.80
51613;DHT22;37694;51.748;14.326;2022-08-01T10:16:59;25.70;44.70
51613;DHT22;37694;51.748;14.326;2022-08-01T10:19:26;25.70;44.70
51613;DHT22;37694;51.748;14.326;2022-08-01T10:21:54;25.70;44.70
51613;DHT22;37694;51.748;14.326;2022-08-01T10:24:20;25.70;44.70
51613;DHT22;37694;51.748;14.326;2022-08-01T10:26:51;25.80;44.80
51613;DHT22;37694;51.748;14.326;2022-08-01T10:29:18;25.80;44.70
51613;DHT22;37694;51.748;14.326;2022-08-01T10:31:46;25.80;44.80
51613;DHT22;37694;51.748;14.326;2022-08-01T10:34:13;25.80;44.60
51613;DHT22;37694;51.748;14.326;2022-08-01T10:36:42;25.90;44.70
51613;DHT22;37694;51.748;14.326;2022-08-01T10:39:10;25.90;44.70
51613;DHT22;37694;51.748;14.326;2022-08-01T10:41:38;25.90;44.70
51613;DHT22;37694;51.748;14.326;2022-08-01T10:44:06;25.90;44.70
51613;DHT22;37694;51.748;14.326;2022-08-01T10:46:31;26.00;44.80
51613;DHT22;37694;51.748;14.326;2022-08-01T10:49:04;26.00;44.70
51613;DHT22;37694;51.748;14.326;2022-08-01T10:51:36;26.00;44.80
51613;DHT22;37694;51.748;14.326;2022-08-01T10:54:06;26.00;44.70
51613;DHT22;37694;51.748;14.326;2022-08-01T10:56:46;26.00;44.90
51613;DHT22;37694;51.748;14.326;2022-08-01T10:59:20;26.00;44.70
51613;DHT22;37694;51.748;14.326;2022-08-01T11:01:59;26.00;44.90
51613;DHT22;37694;51.748;14.326;2022-08-01T11:07:07;26.00;44.80
51613;DHT22;37694;51.748;14.326;2022-08-01T11:09:47;26.00;45.00
51613;DHT22;37694;51.748;14.326;2022-08-01T11:12:16;26.10;44.90
51613;DHT22;37694;51.748;14.326;2022-08-01T11:17:33;26.10;44.80
51613;DHT22;37694;51.748;14.326;2022-08-01T11:20:07;26.10;45.00
51613;DHT22;37694;51.748;14.326;2022-08-01T11:59:39;26.20;45.20
51613;DHT22;37694;51.748;14.326;2022-08-01T12:02:18;26.20;45.20
51613;DHT22;37694;51.748;14.326;2022-08-01T12:04:56;26.20;45.10
51613;DHT22;37694;51.748;14.326;2022-08-01T12:07:23;26.20;45.10
51613;DHT22;37694;51.748;14.326;2022-08-01T12:12:26;26.30;45.10
51613;DHT22;37694;51.748;14.326;2022-08-01T12:14:54;26.30;45.10
51613;DHT22;37694;51.748;14.326;2022-08-01T12:17:27;26.30;45.10
51613;DHT22;37694;51.748;14.326;2022-08-01T12:19:53;26.30;45.10
51613;DHT22;37694;51.748;14.326;2022-08-01T12:22:22;26.30;45.10
51613;DHT22;37694;51.748;14.326;2022-08-01T12:24:48;26.40;45.20
51613;DHT22;37694;51.748;14.326;2022-08-01T12:27:24;26.30;45.10
51613;DHT22;37694;51.748;14.326;2022-08-01T12:29:49;26.40;45.10
51613;DHT22;37694;51.748;14.326;2022-08-01T12:32:45;26.40;45.10
51613;DHT22;37694;51.748;14.326;2022-08-01T12:35:17;26.40;44.90
51613;DHT22;37694;51.748;14.326;2022-08-01T12:37:48;26.40;45.00
51613;DHT22;37694;51.748;14.326;2022-08-01T12:40:19;26.40;45.10
51613;DHT22;37694;51.748;14.326;2022-08-01T12:42:54;26.40;45.00
51613;DHT22;37694;51.748;14.326;2022-08-01T12:45:30;26.40;45.00
51613;DHT22;37694;51.748;14.326;2022-08-01T12:47:57;26.40;45.00
51613;DHT22;37694;51.748;14.326;2022-08-01T12:50:27;26.40;45.10
51613;DHT22;37694;51.748;14.326;2022-08-01T12:52:57;26.50;45.10
51613;DHT22;37694;51.748;14.326;2022-08-01T12:55:24;26.50;45.10
51613;DHT22;37694;51.748;14.326;2022-08-01T12:58:11;26.50;45.10
51613;DHT22;37694;51.748;14.326;2022-08-01T13:00:39;26.50;45.00
51613;DHT22;37694;51.748;14.326;2022-08-01T13:03:10;26.50;45.10
51613;DHT22;37694;51.748;14.326;2022-08-01T13:08:21;26.60;44.90
51613;DHT22;37694;51.748;14.326;2022-08-01T13:10:47;26.50;45.00
51613;DHT22;37694;51.748;14.326;2022-08-01T13:13:14;26.60;45.10
51613;DHT22;37694;51.748;14.326;2022-08-01T13:15:42;26.60;45.00
51613;DHT22;37694;51.748;14.326;2022-08-01T13:18:24;26.60;45.00
51613;DHT22;37694;51.748;14.326;2022-08-01T13:21:06;26.60;44.90
51613;DHT22;37694;51.748;14.326;2022-08-01T13:23:32;26.60;45.00
51613;DHT22;37694;51.748;14.326;2022-08-01T13:25:57;26.70;45.10
51613;DHT22;37694;51.748;14.326;2022-08-01T13:28:26;26.70;45.00
51613;DHT22;37694;51.748;14.326;2022-08-01T13:30:59;26.70;45.10
51613;DHT22;37694;51.748;14.326;2022-08-01T13:33:28;26.70;45.00
51613;DHT22;37694;51.748;14.326;2022-08-01T13:35:56;26.70;45.00
51613;DHT22;37694;51.748;14.326;2022-08-01T13:38:22;26.70;45.00
51613;DHT22;37694;51.748;14.326;2022-08-01T13:41:08;26.70;45.10
51613;DHT22;37694;51.748;14.326;2022-08-01T13:43:34;26.80;45.20
51613;DHT22;37694;51.748;14.326;2022-08-01T13:46:01;26.80;45.10
51613;DHT22;37694;51.748;14.326;2022-08-01T13:48:30;26.80;45.10
51613;DHT22;37694;51.748;14.326;2022-08-01T13:50:56;26.80;45.10
51613;DHT22;37694;51.748;14.326;2022-08-01T13:53:21;26.80;45.90
51613;DHT22;37694;51.748;14.326;2022-08-01T13:55:47;26.80;45.20
51613;DHT22;37694;51.748;14.326;2022-08-01T13:58:12;26.80;45.00
51613;DHT22;37694;51.748;14.326;2022-08-01T14:00:38;26.80;45.00
51613;DHT22;37694;51.748;14.326;2022-08-01T14:03:04;26.90;45.00
51613;DHT22;37694;51.748;14.326;2022-08-01T14:05:29;26.80;45.00
51613;DHT22;37694;51.748;14.326;2022-08-01T14:07:55;26.90;45.00
51613;DHT22;37694;51.748;14.326;2022-08-01T14:10:21;26.90;45.80
51613;DHT22;37694;51.748;14.326;2022-08-01T14:12:49;26.90;44.90
51613;DHT22;37694;51.748;14.326;2022-08-01T14:15:16;26.90;44.90
51613;DHT22;37694;51.748;14.326;2022-08-01T14:17:41;26.90;45.00
51613;DHT22;37694;51.748;14.326;2022-08-01T14:20:07;26.90;45.10
51613;DHT22;37694;51.748;14.326;2022-08-01T14:22:33;26.90;45.00
51613;DHT22;37694;51.748;14.326;2022-08-01T14:24:59;26.90;45.00
51613;DHT22;37694;51.748;14.326;2022-08-01T14:27:25;26.90;45.00
51613;DHT22;37694;51.748;14.326;2022-08-01T14:29:50;26.90;45.00
51613;DHT22;37694;51.748;14.326;2022-08-01T14:32:16;26.90;45.00
51613;DHT22;37694;51.748;14.326;2022-08-01T14:34:41;26.90;45.10
51613;DHT22;37694;51.748;14.326;2022-08-01T14:37:07;26.90;45.10
51613;DHT22;37694;51.748;14.326;2022-08-01T14:39:33;26.90;45.00
51613;DHT22;37694;51.748;14.326;2022-08-01T14:41:58;26.90;45.00
51613;DHT22;37694;51.748;14.326;2022-08-01T14:44:24;26.90;45.00
51613;DHT22;37694;51.748;14.326;2022-08-01T14:46:49;27.00;45.10
51613;DHT22;37694;51.748;14.326;2022-08-01T14:49:15;26.90;45.00
51613;DHT22;37694;51.748;14.326;2022-08-01T14:51:41;27.00;45.30
51613;DHT22;37694;51.748;14.326;2022-08-01T14:54:06;26.80;43.00
51613;DHT22;37694;51.748;14.326;2022-08-01T14:56:32;26.50;42.90
51613;DHT22;37694;51.748;14.326;2022-08-01T14:58:58;26.10;43.10
51613;DHT22;37694;51.748;14.326;2022-08-01T15:01:24;26.00;45.20
51613;DHT22;37694;51.748;14.326;2022-08-01T15:03:49;25.80;45.40
51613;DHT22;37694;51.748;14.326;2022-08-01T15:06:16;25.70;46.00
51613;DHT22;37694;51.748;14.326;2022-08-01T15:08:43;25.70;47.30
51613;DHT22;37694;51.748;14.326;2022-08-01T15:11:08;25.60;46.60
51613;DHT22;37694;51.748;14.326;2022-08-01T15:13:34;25.50;46.80
51613;DHT22;37694;51.748;14.326;2022-08-01T15:16:00;25.50;47.00
51613;DHT22;37694;51.748;14.326;2022-08-01T15:18:26;25.50;47.20
51613;DHT22;37694;51.748;14.326;2022-08-01T15:20:52;25.40;47.40
51613;DHT22;37694;51.748;14.326;2022-08-01T15:23:17;25.40;47.70
51613;DHT22;37694;51.748;14.326;2022-08-01T15:25:44;25.30;47.70
51613;DHT22;37694;51.748;14.326;2022-08-01T15:28:10;25.30;47.80
51613;DHT22;37694;51.748;14.326;2022-08-01T15:30:35;25.30;47.80
51613;DHT22;37694;51.748;14.326;2022-08-01T15:33:01;25.30;47.90
51613;DHT22;37694;51.748;14.326;2022-08-01T15:35:26;25.30;48.10
51613;DHT22;37694;51.748;14.326;2022-08-01T15:37:52;25.20;48.20
51613;DHT22;37694;51.748;14.326;2022-08-01T15:40:18;25.20;48.40
51613;DHT22;37694;51.748;14.326;2022-08-01T15:42:44;25.20;48.40
51613;DHT22;37694;51.748;14.326;2022-08-01T15:45:10;25.10;48.50
51613;DHT22;37694;51.748;14.326;2022-08-01T15:47:37;25.00;48.60
51613;DHT22;37694;51.748;14.326;2022-08-01T15:50:03;25.00;49.00
51613;DHT22;37694;51.748;14.326;2022-08-01T15:52:29;24.90;48.80
51613;DHT22;37694;51.748;14.326;2022-08-01T15:54:55;24.90;48.20
51613;DHT22;37694;51.748;14.326;2022-08-01T15:57:20;24.80;47.90
51613;DHT22;37694;51.748;14.326;2022-08-01T15:59:46;24.70;47.40
51613;DHT22;37694;51.748;14.326;2022-08-01T16:02:12;24.70;47.30
51613;DHT22;37694;51.748;14.326;2022-08-01T16:04:38;24.70;47.60
51613;DHT22;37694;51.748;14.326;2022-08-01T16:07:04;24.60;47.70
51613;DHT22;37694;51.748;14.326;2022-08-01T16:09:30;24.50;47.70
51613;DHT22;37694;51.748;14.326;2022-08-01T16:11:56;24.50;47.70
51613;DHT22;37694;51.748;14.326;2022-08-01T16:14:21;24.50;47.60
51613;DHT22;37694;51.748;14.326;2022-08-01T16:16:47;24.50;47.50
51613;DHT22;37694;51.748;14.326;2022-08-01T16:19:13;24.50;47.50